Time;durP1;ratioP1;P1;durP2;ratioP2;P2;SDS_P1;SDS_P2;PMS_P1;PMS_P2;Temp;Humidity;BMP_temperature;BMP_pressure;BME280_temperature;BME280_humidity;BME280_pressure;Samples;Min_cycle;Max_cycle;Signal;HPM_P1;HPM_P2
2022/05/21 00:00:27;;;;;;;12.50;5.47;;;11.00;99.90;;;;;;5071022;28;20066;-71
2022/05/21 00:02:53;;;;;;;13.57;5.63;;;11.00;99.90;;;;;;5068933;28;20066;-72
2022/05/21 00:05:20;;;;;;;11.05;5.45;;;11.00;99.90;;;;;;5070677;28;20473;-72
2022/05/21 00:07:46;;;;;;;15.30;5.78;;;11.00;99.90;;;;;;5071040;28;20438;-72
2022/05/21 00:10:13;;;;;;;11.77;5.28;;;11.00;99.90;;;;;;5069355;28;20098;-72
2022/05/21 00:12:40;;;;;;;11.10;5.60;;;11.00;99.90;;;;;;5071083;28;20047;-72
2022/05/21 00:15:07;;;;;;;16.02;6.30;;;11.00;99.90;;;;;;5070948;28;20047;-71
2022/05/21 00:17:33;;;;;;;10.73;5.95;;;11.00;99.90;;;;;;5067048;28;20511;-72
2022/05/21 00:20:00;;;;;;;12.40;6.65;;;11.00;99.90;;;;;;5069453;28;20135;-71
2022/05/21 00:22:26;;;;;;;13.75;6.70;;;11.10;99.90;;;;;;5070343;28;20124;-72
2022/05/21 00:24:52;;;;;;;14.02;6.63;;;11.00;99.90;;;;;;5070084;28;20044;-71
2022/05/21 00:27:17;;;;;;;14.55;6.35;;;11.00;99.90;;;;;;5070205;28;20047;-71
2022/05/21 00:29:43;;;;;;;13.55;6.95;;;11.10;99.90;;;;;;5071048;28;20089;-71
2022/05/21 00:32:08;;;;;;;15.60;6.97;;;11.00;99.90;;;;;;5067540;28;20477;-71
2022/05/21 00:34:34;;;;;;;14.57;7.90;;;11.10;99.90;;;;;;5071045;28;20115;-72
2022/05/21 00:37:01;;;;;;;21.85;8.75;;;11.10;99.90;;;;;;5068485;28;20390;-71
2022/05/21 00:39:27;;;;;;;17.27;9.05;;;11.10;99.90;;;;;;5070825;28;20101;-72
2022/05/21 00:41:53;;;;;;;16.25;9.10;;;11.10;99.90;;;;;;5070636;28;20086;-72
2022/05/21 00:44:19;;;;;;;19.15;9.32;;;11.20;99.90;;;;;;5069093;28;20091;-72
2022/05/21 00:46:47;;;;;;;18.05;9.18;;;11.30;99.90;;;;;;5068785;28;20552;-72
2022/05/21 00:49:32;;;;;;;16.50;9.23;;;11.20;99.90;;;;;;5069307;28;20054;-72
2022/05/21 00:52:03;;;;;;;15.35;8.80;;;11.30;99.90;;;;;;5069657;28;20405;-72
2022/05/21 00:54:36;;;;;;;15.00;8.65;;;11.30;99.90;;;;;;5068938;28;20044;-72
2022/05/21 00:57:07;;;;;;;16.50;9.18;;;11.30;99.90;;;;;;5069905;28;20055;-73
2022/05/21 00:59:52;;;;;;;17.80;8.70;;;11.30;99.90;;;;;;5067590;28;20131;-72
2022/05/21 01:02:37;;;;;;;14.15;8.20;;;11.40;99.90;;;;;;5066490;28;20055;-72
2022/05/21 01:05:06;;;;;;;17.20;8.90;;;11.50;99.90;;;;;;5067719;28;20123;-72
2022/05/21 01:07:35;;;;;;;17.38;9.48;;;11.50;99.90;;;;;;5069749;28;20392;-72
2022/05/21 01:10:00;;;;;;;21.80;10.50;;;11.50;99.90;;;;;;5069487;28;20496;-72
2022/05/21 01:12:32;;;;;;;17.08;11.20;;;11.50;99.90;;;;;;5068779;28;20047;-72
2022/05/21 01:15:01;;;;;;;21.17;10.88;;;11.50;99.90;;;;;;5070096;28;20378;-72
2022/05/21 01:17:27;;;;;;;21.15;11.73;;;11.50;99.90;;;;;;5049341;28;20116;-72
2022/05/21 01:20:05;;;;;;;19.10;11.82;;;11.50;99.90;;;;;;5031314;28;20128;-72
2022/05/21 01:22:40;;;;;;;20.60;12.95;;;11.50;99.90;;;;;;5048833;28;21048;-72
2022/05/21 01:25:06;;;;;;;18.83;13.07;;;11.60;99.90;;;;;;5068017;28;20055;-72
2022/05/21 01:27:32;;;;;;;22.85;12.40;;;11.50;99.90;;;;;;5067486;28;20056;-71
2022/05/21 01:29:59;;;;;;;24.83;14.52;;;11.60;99.90;;;;;;5071623;28;20043;-72
2022/05/21 01:32:24;;;;;;;26.45;14.15;;;11.60;99.90;;;;;;5067382;28;20127;-72
2022/05/21 01:34:51;;;;;;;23.83;13.75;;;11.60;99.90;;;;;;5068024;28;20166;-72
2022/05/21 01:37:17;;;;;;;24.17;14.00;;;11.90;99.90;;;;;;5066789;28;20442;-73
2022/05/21 01:39:43;;;;;;;27.27;15.82;;;11.70;99.90;;;;;;5069443;28;20114;-73
2022/05/21 01:42:09;;;;;;;22.25;15.50;;;11.70;99.90;;;;;;5068505;28;20036;-72
2022/05/21 01:44:37;;;;;;;26.70;14.82;;;11.70;99.90;;;;;;5068666;28;20507;-71
2022/05/21 01:47:14;;;;;;;24.42;15.45;;;11.80;99.90;;;;;;5067743;28;20040;-71
2022/05/21 01:49:41;;;;;;;27.85;16.13;;;11.80;99.90;;;;;;5067635;28;20085;-71
2022/05/21 01:52:08;;;;;;;26.90;16.33;;;11.90;99.90;;;;;;5057550;28;20060;-72
2022/05/21 01:54:35;;;;;;;24.17;14.70;;;11.90;99.90;;;;;;5048231;28;20435;-72
2022/05/21 01:57:01;;;;;;;24.60;15.93;;;12.40;99.90;;;;;;5048757;28;20045;-71
2022/05/21 01:59:27;;;;;;;28.25;16.95;;;12.00;99.90;;;;;;5050279;28;20057;-72
2022/05/21 02:01:53;;;;;;;27.33;17.52;;;12.00;99.90;;;;;;5063779;28;20045;-72
2022/05/21 02:04:20;;;;;;;33.08;19.42;;;12.10;99.90;;;;;;5068853;28;20462;-71
2022/05/21 02:06:47;;;;;;;32.30;18.88;;;12.10;99.90;;;;;;5068928;28;20048;-72
2022/05/21 02:09:13;;;;;;;30.00;19.90;;;12.10;99.90;;;;;;5066574;28;20511;-71
2022/05/21 02:11:39;;;;;;;29.27;20.67;;;12.70;99.90;;;;;;5066943;28;20040;-71
2022/05/21 02:14:06;;;;;;;29.10;19.88;;;12.20;99.90;;;;;;5069042;28;20087;-71
2022/05/21 02:16:34;;;;;;;30.65;18.33;;;12.30;99.90;;;;;;5065414;28;20613;-72
2022/05/21 02:19:01;;;;;;;32.70;20.65;;;12.30;99.90;;;;;;5067693;28;20051;-72
2022/05/21 02:21:28;;;;;;;31.52;21.10;;;12.30;99.90;;;;;;5067411;28;20044;-74
2022/05/21 02:23:53;;;;;;;32.40;21.20;;;12.30;99.90;;;;;;5067985;28;20040;-71
2022/05/21 02:26:19;;;;;;;30.20;21.77;;;12.30;99.90;;;;;;5066968;28;20048;-72
2022/05/21 02:28:45;;;;;;;32.42;20.48;;;12.40;99.90;;;;;;5068110;28;20086;-71
2022/05/21 02:31:10;;;;;;;30.65;21.60;;;12.40;99.90;;;;;;5067224;28;20474;-71
2022/05/21 02:33:36;;;;;;;37.08;22.48;;;12.40;99.90;;;;;;5066307;28;20047;-71
2022/05/21 02:36:02;;;;;;;32.78;20.02;;;12.40;99.90;;;;;;5068110;28;20045;-72
2022/05/21 02:41:14;;;;;;;33.65;20.75;;;12.50;99.90;;;;;;5067738;28;20055;-72
2022/05/21 02:43:40;;;;;;;29.23;21.67;;;12.60;99.90;;;;;;5067375;28;20045;-71
2022/05/21 02:46:06;;;;;;;40.72;22.67;;;12.60;99.90;;;;;;5066433;28;20071;-72
2022/05/21 02:48:32;;;;;;;36.88;21.35;;;13.20;99.90;;;;;;5065751;28;20504;-71
2022/05/21 02:50:57;;;;;;;38.67;21.38;;;12.60;99.90;;;;;;5068083;28;20052;-72
2022/05/21 02:53:23;;;;;;;39.20;20.60;;;12.60;99.90;;;;;;5067392;28;20469;-72
2022/05/21 02:55:51;;;;;;;37.22;20.73;;;12.60;99.90;;;;;;5067919;28;20040;-72
2022/05/21 02:58:17;;;;;;;33.55;21.67;;;12.60;99.90;;;;;;5067187;28;20132;-72
2022/05/21 03:00:44;;;;;;;36.42;21.38;;;13.50;99.90;;;;;;5067561;28;20496;-71
2022/05/21 03:03:10;;;;;;;35.08;20.35;;;13.20;99.90;;;;;;5066637;28;20048;-72
2022/05/21 03:05:36;;;;;;;35.28;19.17;;;12.70;99.90;;;;;;5066760;28;20093;-72
2022/05/21 03:10:20;;;;;;;38.40;17.67;;;12.70;99.90;;;;;;5067843;28;20111;-72
2022/05/21 03:10:54;;;;;;;34.15;15.57;;;12.80;99.90;;;;;;5068232;28;20049;-71
2022/05/21 03:13:20;;;;;;;29.17;14.35;;;12.80;99.90;;;;;;5065152;28;20056;-72
2022/05/21 03:15:46;;;;;;;30.27;14.55;;;12.80;99.90;;;;;;5063357;28;20037;-72
2022/05/21 03:18:13;;;;;;;25.45;11.55;;;12.80;99.90;;;;;;5045659;28;20453;-72
2022/05/21 03:20:39;;;;;;;24.75;11.38;;;12.80;99.90;;;;;;5049585;28;20131;-72
2022/05/21 03:23:07;;;;;;;31.38;10.75;;;13.90;99.90;;;;;;5062195;28;20119;-71
2022/05/21 03:25:33;;;;;;;24.13;9.00;;;12.90;99.90;;;;;;5067637;28;20048;-71
2022/05/21 03:28:00;;;;;;;25.90;9.43;;;12.90;99.90;;;;;;5066381;28;20104;-72
2022/05/21 03:30:28;;;;;;;23.70;9.50;;;12.90;99.90;;;;;;5068722;28;20048;-72
2022/05/21 03:32:54;;;;;;;25.80;7.97;;;12.90;99.90;;;;;;5068174;28;20116;-72
2022/05/21 03:35:22;;;;;;;26.73;8.55;;;13.00;99.90;;;;;;5070395;28;20181;-72
2022/05/21 03:37:49;;;;;;;27.80;7.85;;;13.00;99.90;;;;;;5071782;28;20048;-71
2022/05/21 03:40:18;;;;;;;27.20;7.25;;;13.00;99.90;;;;;;5070877;28;20044;-72
2022/05/21 03:42:45;;;;;;;25.05;7.80;;;13.40;99.90;;;;;;5070387;28;20048;-71
2022/05/21 03:45:12;;;;;;;19.98;6.80;;;13.20;99.90;;;;;;5086917;28;20056;-72
2022/05/21 03:47:41;;;;;;;25.50;7.82;;;13.20;99.90;;;;;;5067538;28;20409;-72
2022/05/21 03:50:11;;;;;;;18.15;6.72;;;13.20;99.90;;;;;;5065710;28;20052;-72
2022/05/21 03:52:36;;;;;;;24.27;7.32;;;13.30;99.90;;;;;;5071379;28;20120;-71
2022/05/21 03:55:03;;;;;;;25.98;7.00;;;13.30;99.90;;;;;;5071221;28;20441;-72
2022/05/21 03:57:28;;;;;;;23.30;6.47;;;13.30;99.90;;;;;;5070582;28;20041;-72
2022/05/21 03:59:57;;;;;;;21.00;5.55;;;13.40;99.90;;;;;;5053836;28;20131;-72
2022/05/21 04:02:23;;;;;;;23.38;6.63;;;14.60;99.90;;;;;;5066355;28;20084;-71
2022/05/21 04:04:49;;;;;;;18.63;5.55;;;13.50;99.90;;;;;;5068693;28;20133;-71
2022/05/21 04:07:15;;;;;;;23.20;5.75;;;13.50;99.90;;;;;;5050740;28;20045;-71
2022/05/21 04:09:40;;;;;;;16.65;5.05;;;13.60;99.90;;;;;;5050431;28;20048;-72
2022/05/21 04:12:07;;;;;;;17.15;5.63;;;13.60;99.90;;;;;;5050868;28;20044;-71
2022/05/21 04:14:33;;;;;;;16.38;5.32;;;13.60;99.90;;;;;;5058129;28;20405;-71
2022/05/21 04:17:00;;;;;;;23.17;4.93;;;13.60;99.90;;;;;;5069238;28;20041;-72
2022/05/21 04:19:28;;;;;;;16.88;4.28;;;13.70;99.90;;;;;;5070474;28;20105;-72
2022/05/21 04:21:54;;;;;;;18.80;5.22;;;13.70;99.90;;;;;;5071050;28;20037;-72
2022/05/21 04:24:19;;;;;;;22.55;5.35;;;13.70;99.90;;;;;;5070346;28;20055;-72
2022/05/21 04:26:45;;;;;;;13.25;4.20;;;13.70;99.90;;;;;;5070446;28;20032;-72
2022/05/21 04:29:12;;;;;;;18.70;4.43;;;13.70;99.90;;;;;;5069960;28;20076;-71
2022/05/21 04:31:38;;;;;;;16.23;4.10;;;13.70;99.90;;;;;;5068676;28;20101;-72
2022/05/21 04:34:04;;;;;;;17.80;3.90;;;13.90;99.90;;;;;;5070735;28;20044;-72
2022/05/21 04:36:31;;;;;;;16.73;3.90;;;13.90;99.90;;;;;;5069530;28;20450;-72
2022/05/21 04:38:56;;;;;;;15.73;4.43;;;13.80;99.90;;;;;;5070994;28;20052;-71
2022/05/21 04:41:22;;;;;;;14.85;4.00;;;13.80;99.90;;;;;;5069398;28;20771;-72
2022/05/21 04:43:48;;;;;;;14.45;3.97;;;13.80;99.90;;;;;;5069585;28;20124;-72
2022/05/21 04:46:17;;;;;;;14.75;3.50;;;13.90;99.90;;;;;;5068223;28;20516;-71
2022/05/21 04:48:44;;;;;;;12.38;3.63;;;13.90;99.90;;;;;;5058989;28;20049;-73
2022/05/21 04:51:10;;;;;;;9.98;3.70;;;13.90;99.90;;;;;;5049608;28;20500;-72
2022/05/21 04:53:36;;;;;;;16.88;3.80;;;14.40;99.90;;;;;;5050279;28;20049;-71
2022/05/21 04:56:03;;;;;;;10.02;3.50;;;13.80;99.90;;;;;;5068255;28;20040;-72
2022/05/21 04:58:29;;;;;;;11.10;3.88;;;13.90;99.90;;;;;;5068052;28;20654;-72
2022/05/21 05:00:55;;;;;;;16.73;3.53;;;13.90;99.90;;;;;;5068165;28;20040;-72
2022/05/21 05:03:21;;;;;;;13.05;4.38;;;14.20;99.90;;;;;;5068413;28;20049;-71
2022/05/21 05:05:47;;;;;;;10.60;3.58;;;14.00;99.90;;;;;;5058493;28;20048;-72
2022/05/21 05:08:15;;;;;;;12.90;3.50;;;14.00;99.90;;;;;;5049522;28;20365;-71
2022/05/21 05:10:42;;;;;;;13.07;3.58;;;14.30;99.90;;;;;;5065506;28;20053;-71
2022/05/21 05:13:08;;;;;;;12.38;3.78;;;14.00;99.90;;;;;;5068321;28;20059;-72
2022/05/21 05:15:34;;;;;;;10.20;3.28;;;14.10;99.90;;;;;;5069748;28;20045;-72
2022/05/21 05:18:06;;;;;;;13.75;3.10;;;14.00;99.90;;;;;;5067999;28;20040;-72
2022/05/21 05:20:32;;;;;;;13.55;3.53;;;14.10;99.90;;;;;;5069398;28;20119;-72
2022/05/21 05:22:58;;;;;;;13.32;3.33;;;14.20;99.90;;;;;;5069852;28;20440;-73
2022/05/21 05:25:24;;;;;;;14.55;3.47;;;14.10;99.90;;;;;;5068061;28;20076;-73
2022/05/21 05:27:51;;;;;;;13.75;3.38;;;14.20;99.90;;;;;;5069131;28;20177;-73
2022/05/21 05:30:19;;;;;;;12.38;3.25;;;14.30;99.90;;;;;;5069388;28;20048;-73
2022/05/21 05:32:44;;;;;;;12.95;3.50;;;14.30;99.90;;;;;;5067589;28;20045;-72
2022/05/21 05:35:11;;;;;;;12.40;3.60;;;14.30;99.90;;;;;;5069276;28;20098;-72
2022/05/21 05:37:38;;;;;;;11.35;3.20;;;14.30;99.90;;;;;;5064531;28;20033;-73
2022/05/21 05:40:07;;;;;;;18.40;3.30;;;14.30;99.90;;;;;;5064872;28;20530;-73
2022/05/21 05:42:36;;;;;;;16.05;3.20;;;14.50;99.90;;;;;;5067721;28;20048;-73
2022/05/21 05:45:03;;;;;;;13.45;3.25;;;14.50;99.90;;;;;;5068871;28;20052;-72
2022/05/21 05:47:31;;;;;;;12.38;3.55;;;14.50;99.90;;;;;;5068162;28;20041;-72
2022/05/21 05:49:57;;;;;;;12.95;4.15;;;14.50;99.90;;;;;;5067751;28;20083;-73
2022/05/21 05:52:23;;;;;;;12.90;3.22;;;14.50;99.90;;;;;;5067989;28;20045;-73
2022/05/21 05:54:49;;;;;;;16.75;3.45;;;14.50;99.90;;;;;;5068702;28;20044;-73
2022/05/21 05:57:15;;;;;;;16.63;3.47;;;14.50;99.90;;;;;;5067170;28;20048;-73
2022/05/21 05:59:50;;;;;;;15.57;3.78;;;14.50;99.90;;;;;;5068601;28;20947;-73
2022/05/21 06:05:09;;;;;;;14.02;3.13;;;14.60;99.90;;;;;;5067787;28;20243;-71
2022/05/21 06:07:44;;;;;;;13.90;3.78;;;14.60;99.90;;;;;;5067804;28;20124;-72
2022/05/21 06:10:11;;;;;;;15.98;3.22;;;14.60;99.90;;;;;;5069629;28;20406;-74
2022/05/21 06:12:37;;;;;;;13.98;3.20;;;14.60;99.90;;;;;;5067769;28;20067;-71
2022/05/21 06:15:04;;;;;;;15.98;3.63;;;14.70;99.90;;;;;;5067599;28;20041;-71
2022/05/21 06:17:29;;;;;;;10.32;3.33;;;14.80;99.90;;;;;;5045555;28;20489;-72
2022/05/21 06:19:55;;;;;;;17.27;3.28;;;14.80;99.90;;;;;;5063856;28;20051;-72
2022/05/21 06:22:21;;;;;;;16.45;4.15;;;14.90;99.90;;;;;;5067014;28;20048;-72
2022/05/21 06:24:47;;;;;;;11.48;3.50;;;14.90;99.90;;;;;;5068792;28;20223;-72
2022/05/21 06:27:13;;;;;;;12.32;3.13;;;14.90;99.90;;;;;;5067356;28;20028;-72
2022/05/21 06:29:38;;;;;;;16.65;4.05;;;14.90;99.90;;;;;;5067920;28;20114;-72
2022/05/21 06:32:06;;;;;;;14.52;3.53;;;14.80;99.90;;;;;;5066881;28;20049;-72
2022/05/21 06:34:32;;;;;;;15.43;3.70;;;14.80;99.90;;;;;;5067542;28;20053;-72
2022/05/21 06:37:06;;;;;;;14.52;3.58;;;14.90;99.90;;;;;;5067687;28;20119;-72
2022/05/21 06:39:32;;;;;;;13.63;3.30;;;15.00;99.90;;;;;;5068068;28;20056;-72
2022/05/21 06:41:59;;;;;;;9.45;2.83;;;15.20;99.90;;;;;;5059090;28;20486;-73
2022/05/21 06:44:24;;;;;;;11.23;2.90;;;15.00;99.90;;;;;;5045455;28;20048;-73
2022/05/21 06:46:50;;;;;;;13.30;3.50;;;15.20;99.90;;;;;;5047005;28;20446;-73
2022/05/21 06:49:17;;;;;;;15.02;3.22;;;15.20;99.90;;;;;;5052849;28;20101;-73
2022/05/21 06:51:43;;;;;;;15.30;3.55;;;15.20;99.90;;;;;;5066788;28;20144;-73
2022/05/21 06:54:09;;;;;;;11.05;3.20;;;15.30;99.90;;;;;;5068304;28;20113;-72
2022/05/21 06:56:38;;;;;;;11.93;2.67;;;15.80;99.90;;;;;;5067941;28;20161;-71
2022/05/21 06:59:03;;;;;;;15.93;3.50;;;15.40;99.90;;;;;;5067586;28;20187;-72
2022/05/21 07:01:29;;;;;;;9.98;2.70;;;15.40;99.90;;;;;;5065932;28;20160;-72
2022/05/21 07:03:55;;;;;;;17.00;3.50;;;15.50;99.90;;;;;;5067399;28;20044;-72
2022/05/21 07:09:05;;;;;;;10.13;3.15;;;15.70;99.90;;;;;;5056685;28;20053;-71
2022/05/21 07:11:32;;;;;;;12.40;3.60;;;15.90;99.90;;;;;;5074449;28;20052;-72
2022/05/21 07:13:58;;;;;;;12.98;3.17;;;16.00;99.90;;;;;;5075159;28;20116;-71
2022/05/21 07:16:24;;;;;;;13.35;3.17;;;16.10;99.90;;;;;;5072526;28;20036;-72
2022/05/21 07:18:49;;;;;;;9.82;2.90;;;16.20;99.90;;;;;;5072948;28;20052;-71
2022/05/21 07:21:17;;;;;;;9.35;2.65;;;16.20;99.90;;;;;;5072753;28;20044;-72
2022/05/21 07:23:44;;;;;;;9.68;2.95;;;16.30;99.90;;;;;;5071908;28;20435;-72
2022/05/21 07:26:09;;;;;;;10.70;2.75;;;16.40;99.90;;;;;;5072962;28;20093;-72
2022/05/21 07:28:35;;;;;;;14.48;3.83;;;16.40;99.90;;;;;;5074088;28;20119;-72
2022/05/21 07:31:01;;;;;;;12.10;3.05;;;16.40;99.90;;;;;;5072120;28;20040;-72
2022/05/21 07:33:27;;;;;;;9.48;2.80;;;16.30;99.90;;;;;;5072922;28;20098;-72
2022/05/21 07:35:52;;;;;;;10.88;3.00;;;16.40;99.90;;;;;;5074214;28;20519;-73
2022/05/21 07:38:18;;;;;;;15.18;3.10;;;16.50;99.90;;;;;;5059870;28;20056;-72
2022/05/21 07:40:47;;;;;;;13.90;2.92;;;16.50;99.90;;;;;;5054101;28;20378;-72
2022/05/21 07:43:19;;;;;;;16.75;3.20;;;16.50;99.90;;;;;;5052623;28;20092;-72
2022/05/21 07:45:45;;;;;;;12.90;2.85;;;16.40;99.90;;;;;;5056207;28;20055;-72
2022/05/21 07:48:14;;;;;;;12.77;3.03;;;16.50;99.90;;;;;;5036398;28;20049;-72
2022/05/21 07:50:41;;;;;;;14.73;3.30;;;16.50;99.90;;;;;;5071079;28;20040;-72
2022/05/21 07:53:11;;;;;;;11.02;3.00;;;16.60;99.90;;;;;;5073046;28;20059;-72
2022/05/21 07:55:38;;;;;;;14.00;3.10;;;16.50;99.90;;;;;;5073738;28;20041;-71
2022/05/21 07:58:04;;;;;;;10.73;2.60;;;16.50;99.90;;;;;;5073651;28;20057;-72
2022/05/21 08:00:30;;;;;;;11.05;3.08;;;16.50;99.90;;;;;;5073151;28;20123;-72
2022/05/21 08:02:55;;;;;;;11.38;2.97;;;16.60;99.90;;;;;;5054792;28;20481;-72
2022/05/21 08:05:21;;;;;;;11.00;2.95;;;17.00;99.90;;;;;;5071579;28;20060;-72
2022/05/21 08:07:51;;;;;;;11.77;2.90;;;16.70;99.90;;;;;;5072115;28;20405;-72
2022/05/21 08:10:17;;;;;;;12.65;3.10;;;16.80;99.90;;;;;;5073894;28;21019;-72
2022/05/21 08:12:43;;;;;;;12.75;3.00;;;16.80;99.90;;;;;;5073236;28;20056;-72
2022/05/21 08:15:09;;;;;;;15.82;3.25;;;16.80;99.90;;;;;;5072507;28;20067;-73
2022/05/21 08:17:35;;;;;;;10.63;2.83;;;16.80;99.90;;;;;;5071832;28;20437;-72
2022/05/21 08:20:00;;;;;;;12.48;2.92;;;16.90;99.90;;;;;;5069988;28;20055;-73
2022/05/21 08:27:56;;;;;;;12.57;2.85;;;17.20;99.90;;;;;;5071884;28;20051;-72
2022/05/21 08:30:21;;;;;;;9.30;2.90;;;17.40;99.90;;;;;;5067773;28;20511;-73
2022/05/21 08:32:47;;;;;;;14.05;3.05;;;17.60;99.90;;;;;;5070161;28;20039;-73
2022/05/21 08:35:12;;;;;;;12.07;3.00;;;17.80;99.90;;;;;;5069158;28;20044;-73
2022/05/21 08:37:38;;;;;;;12.35;2.88;;;17.70;99.90;;;;;;5070160;28;20369;-73
2022/05/21 08:40:04;;;;;;;13.80;2.92;;;17.80;99.90;;;;;;5070545;28;20037;-72
2022/05/21 08:42:39;;;;;;;12.15;2.50;;;17.80;99.90;;;;;;5068138;28;20128;-72
2022/05/21 08:45:45;;;;;;;11.50;2.92;;;17.70;99.90;;;;;;5066992;28;20124;-72
2022/05/21 08:48:11;;;;;;;12.00;2.65;;;17.80;99.90;;;;;;5057884;28;20568;-72
2022/05/21 08:50:41;;;;;;;10.35;2.70;;;17.80;99.90;;;;;;5068805;28;20223;-72
2022/05/21 08:53:13;;;;;;;14.35;2.80;;;17.70;99.90;;;;;;5068691;28;20036;-72
2022/05/21 08:55:48;;;;;;;10.32;2.78;;;17.70;99.90;;;;;;5069774;28;20037;-70
2022/05/21 08:58:35;;;;;;;10.88;2.88;;;17.80;99.90;;;;;;5069052;28;20065;-70
2022/05/21 09:01:00;;;;;;;13.40;2.80;;;18.00;99.90;;;;;;5069686;28;20047;-70
2022/05/21 09:03:28;;;;;;;12.00;2.83;;;18.20;99.90;;;;;;5068080;28;20044;-70
2022/05/21 09:06:06;;;;;;;12.98;2.60;;;18.20;99.90;;;;;;5069981;28;20197;-71
2022/05/21 09:08:40;;;;;;;12.07;2.50;;;18.00;99.90;;;;;;5068322;28;20044;-71
2022/05/21 09:11:14;;;;;;;12.80;2.90;;;18.40;99.90;;;;;;5069836;28;20044;-71
2022/05/21 09:14:05;;;;;;;10.85;2.65;;;18.50;99.90;;;;;;5070096;28;20551;-70
2022/05/21 09:16:55;;;;;;;10.50;2.47;;;18.30;99.90;;;;;;5067633;28;20048;-71
2022/05/21 09:19:48;;;;;;;7.45;2.33;;;18.20;99.90;;;;;;5069112;28;20036;-70
2022/05/21 09:22:16;;;;;;;9.18;2.72;;;18.10;99.90;;;;;;5070205;28;20052;-70
2022/05/21 09:24:52;;;;;;;9.50;2.63;;;18.20;99.90;;;;;;5069752;28;20040;-70
2022/05/21 09:27:31;;;;;;;12.73;3.33;;;18.10;99.90;;;;;;5067250;28;20439;-70
2022/05/21 09:30:34;;;;;;;9.75;2.70;;;18.10;99.90;;;;;;5065988;28;20093;-70
2022/05/21 09:33:19;;;;;;;9.02;2.75;;;18.00;99.90;;;;;;5055274;28;20044;-70
2022/05/21 09:35:55;;;;;;;11.02;2.67;;;18.00;99.90;;;;;;5067449;28;20505;-71
2022/05/21 09:38:23;;;;;;;12.88;3.03;;;17.90;99.90;;;;;;5062078;28;20492;-71
2022/05/21 09:40:49;;;;;;;8.93;2.17;;;17.80;99.90;;;;;;5067626;28;20040;-71
2022/05/21 09:46:16;;;;;;;8.75;2.33;;;17.80;99.90;;;;;;5067509;28;20057;-71
2022/05/21 09:48:41;;;;;;;7.20;2.30;;;18.00;99.90;;;;;;5065039;28;20498;-70
2022/05/21 09:51:24;;;;;;;13.07;2.65;;;17.70;99.90;;;;;;5050465;28;20147;-70
2022/05/21 09:53:50;;;;;;;10.07;2.50;;;17.60;99.90;;;;;;5069805;28;20479;-71
2022/05/21 09:56:33;;;;;;;11.45;2.70;;;17.70;99.90;;;;;;5067775;28;20105;-72
2022/05/21 09:59:20;;;;;;;8.82;2.75;;;18.00;99.90;;;;;;5066951;28;20064;-72
2022/05/21 10:01:55;;;;;;;10.35;2.53;;;18.00;99.90;;;;;;5065290;28;20555;-72
2022/05/21 10:04:52;;;;;;;8.43;2.80;;;18.20;99.90;;;;;;5067636;28;20314;-72
2022/05/21 10:13:19;;;;;;;12.32;2.47;;;18.90;99.90;;;;;;5066051;28;20074;-73
2022/05/21 10:15:49;;;;;;;10.38;2.50;;;19.10;99.90;;;;;;5065382;28;20100;-74
2022/05/21 10:18:39;;;;;;;8.95;2.47;;;18.90;99.90;;;;;;5065840;28;20045;-73
2022/05/21 10:21:31;;;;;;;10.05;2.70;;;18.70;99.90;;;;;;5063864;28;20051;-74
2022/05/21 10:24:15;;;;;;;6.40;2.05;;;18.80;99.90;;;;;;5065920;28;20060;-72
2022/05/21 10:26:50;;;;;;;8.20;2.20;;;19.50;99.90;;;;;;5063676;28;20044;-71
2022/05/21 10:29:41;;;;;;;9.10;2.00;;;19.40;99.90;;;;;;5065299;28;20048;-72
2022/05/21 10:32:33;;;;;;;10.63;2.30;;;19.90;99.90;;;;;;5065656;28;20083;-70
2022/05/21 10:35:14;;;;;;;8.45;2.00;;;20.60;99.90;;;;;;5066615;28;20036;-70
2022/05/21 10:37:49;;;;;;;8.38;2.03;;;22.40;99.90;;;;;;5064136;28;20049;-70
2022/05/21 10:40:47;;;;;;;10.43;2.45;;;24.80;99.90;;;;;;5063278;28;20086;-69
2022/05/21 10:43:52;;;;;;;10.07;2.42;;;26.00;98.30;;;;;;5059819;28;20428;-70
2022/05/21 10:46:51;;;;;;;6.97;2.30;;;26.60;95.50;;;;;;5066639;28;20044;-69
2022/05/21 10:49:45;;;;;;;8.57;2.05;;;26.10;94.70;;;;;;5064854;28;20064;-70
2022/05/21 10:52:37;;;;;;;8.02;2.17;;;27.30;94.60;;;;;;5063264;28;20117;-70
2022/05/21 10:55:26;;;;;;;11.48;2.03;;;29.80;91.60;;;;;;5073358;28;20406;-70
2022/05/21 10:58:30;;;;;;;7.25;2.13;;;31.00;87.60;;;;;;5065536;28;20061;-69
2022/05/21 11:01:18;;;;;;;8.45;2.75;;;30.00;86.00;;;;;;5068404;28;20078;-70
2022/05/21 11:03:55;;;;;;;7.30;2.13;;;31.30;85.20;;;;;;5071397;28;20504;-71
2022/05/21 11:06:49;;;;;;;7.88;2.25;;;32.60;81.50;;;;;;5063532;28;20088;-71
2022/05/21 11:09:35;;;;;;;7.65;2.20;;;33.90;80.80;;;;;;5063729;28;20464;-71
2022/05/21 11:12:17;;;;;;;7.32;1.92;;;34.40;75.30;;;;;;5064245;28;20040;-71
2022/05/21 11:14:52;;;;;;;7.65;2.20;;;35.00;72.90;;;;;;5064680;28;20048;-71
2022/05/21 11:17:40;;;;;;;6.95;1.92;;;35.90;69.20;;;;;;5061202;28;20045;-72
2022/05/21 11:20:15;;;;;;;8.43;2.10;;;36.70;64.50;;;;;;5066528;28;20373;-70
2022/05/21 11:22:59;;;;;;;5.78;1.90;;;37.10;60.70;;;;;;5062743;28;20176;-70
2022/05/21 11:25:48;;;;;;;6.85;1.90;;;37.50;58.60;;;;;;5062818;28;20082;-70
2022/05/21 11:28:34;;;;;;;8.50;2.30;;;37.00;58.80;;;;;;5065520;28;20162;-70
2022/05/21 11:31:07;;;;;;;7.13;2.10;;;36.10;59.50;;;;;;5062862;28;20533;-70
2022/05/21 11:39:12;;;;;;;6.85;1.80;;;34.90;57.60;;;;;;5064545;28;20060;-71
2022/05/21 11:41:53;;;;;;;8.63;2.00;;;33.50;58.70;;;;;;5066587;28;20080;-70
2022/05/21 11:47:13;;;;;;;6.68;2.05;;;31.60;60.40;;;;;;5045407;28;20049;-71
2022/05/21 11:49:57;;;;;;;7.47;2.15;;;32.10;60.20;;;;;;5047336;28;20533;-70
2022/05/21 11:52:26;;;;;;;9.03;2.43;;;31.70;60.40;;;;;;5065406;28;20040;-72
2022/05/21 11:54:55;;;;;;;9.38;2.35;;;30.20;61.90;;;;;;5069290;28;20040;-70
2022/05/21 11:57:32;;;;;;;7.57;2.15;;;29.00;63.10;;;;;;5069517;28;20123;-69
2022/05/21 12:00:00;;;;;;;7.32;2.13;;;28.10;64.20;;;;;;5073637;28;20048;-70
2022/05/21 12:02:29;;;;;;;9.23;2.33;;;27.00;66.10;;;;;;5071264;28;20064;-70
2022/05/21 12:05:09;;;;;;;9.52;2.10;;;26.40;66.90;;;;;;5071171;28;20055;-69
2022/05/21 12:07:40;;;;;;;10.77;2.90;;;25.40;68.20;;;;;;5068905;28;20175;-69
2022/05/21 12:10:19;;;;;;;7.63;2.25;;;24.90;70.10;;;;;;5071091;28;20038;-69
2022/05/21 12:13:06;;;;;;;9.32;2.50;;;25.60;71.50;;;;;;5069607;28;20466;-69
2022/05/21 12:15:38;;;;;;;7.20;1.70;;;27.00;69.30;;;;;;5070385;28;20056;-69
2022/05/21 12:18:26;;;;;;;7.60;1.80;;;28.30;66.80;;;;;;5070906;28;20102;-68
2022/05/21 12:20:53;;;;;;;7.43;1.80;;;29.50;64.80;;;;;;5067571;28;20046;-68
2022/05/21 12:23:31;;;;;;;4.93;1.90;;;30.90;62.90;;;;;;5070334;28;20040;-68
2022/05/21 12:26:08;;;;;;;8.70;2.38;;;31.10;62.70;;;;;;5071828;28;20049;-69
2022/05/21 12:28:46;;;;;;;9.27;2.45;;;30.60;63.60;;;;;;5070486;28;20381;-68
2022/05/21 12:31:24;;;;;;;7.18;2.10;;;29.40;64.10;;;;;;5068336;28;20165;-70
2022/05/21 12:34:00;;;;;;;4.43;1.55;;;28.20;65.20;;;;;;5067159;28;20049;-69
2022/05/21 12:36:43;;;;;;;8.27;1.80;;;27.30;65.20;;;;;;5067042;28;20041;-69
2022/05/21 12:39:13;;;;;;;5.53;1.70;;;26.20;65.30;;;;;;5067445;28;20377;-68
2022/05/21 12:41:43;;;;;;;8.07;1.90;;;25.20;67.20;;;;;;5066360;28;20044;-68
2022/05/21 12:44:11;;;;;;;8.27;1.90;;;25.00;69.80;;;;;;5068493;28;20094;-68
2022/05/21 12:46:41;;;;;;;7.88;2.00;;;24.80;71.80;;;;;;5064265;28;20116;-68
2022/05/21 12:49:11;;;;;;;7.05;1.88;;;24.40;73.80;;;;;;5068579;28;20036;-69
2022/05/21 12:51:41;;;;;;;7.00;1.90;;;23.60;73.70;;;;;;5075161;28;20049;-68
2022/05/21 12:54:22;;;;;;;7.45;1.70;;;23.80;75.50;;;;;;5066483;28;20055;-68
2022/05/21 12:56:49;;;;;;;6.45;1.70;;;23.10;74.80;;;;;;5067905;28;20040;-69
2022/05/21 12:59:23;;;;;;;5.70;1.75;;;22.90;76.70;;;;;;5048101;28;20098;-69
2022/05/21 13:02:08;;;;;;;6.00;1.80;;;22.80;76.40;;;;;;5046591;28;20486;-69
2022/05/21 13:04:38;;;;;;;8.55;2.10;;;22.40;78.50;;;;;;5049695;28;20056;-68
2022/05/21 13:07:21;;;;;;;7.43;2.00;;;22.30;80.90;;;;;;5049673;28;20072;-69
2022/05/21 13:09:58;;;;;;;7.45;1.92;;;22.00;83.40;;;;;;5049043;28;20132;-69
2022/05/21 13:12:25;;;;;;;6.35;1.70;;;21.70;86.10;;;;;;5048478;28;20048;-69
2022/05/21 13:14:51;;;;;;;6.72;1.83;;;21.50;90.00;;;;;;5030063;28;20060;-68
2022/05/21 13:17:58;;;;;;;9.25;2.10;;;21.60;90.70;;;;;;5046803;28;20041;-69
2022/05/21 13:20:56;;;;;;;6.97;1.83;;;21.50;92.00;;;;;;5048135;28;20497;-69
2022/05/21 13:23:53;;;;;;;7.20;2.00;;;21.30;93.40;;;;;;5047067;28;20549;-69
2022/05/21 13:26:22;;;;;;;9.38;1.85;;;21.30;94.90;;;;;;5047611;28;20060;-69
2022/05/21 13:28:48;;;;;;;8.68;2.10;;;21.60;95.90;;;;;;5047392;28;20045;-69